createdAt,value
2022-09-04T00:01:46.085Z,3.05
2022-09-04T00:04:37.903Z,3.53
2022-09-04T00:07:34.938Z,3.00
2022-09-04T00:10:39.355Z,3.40
2022-09-04T00:13:27.621Z,4.43
2022-09-04T00:16:21.584Z,3.55
2022-09-04T00:19:10.725Z,3.85
2022-09-04T00:22:00.318Z,3.30
2022-09-04T00:24:44.537Z,3.58
2022-09-04T00:27:25.045Z,3.63
2022-09-04T00:30:06.281Z,3.60
2022-09-04T00:33:00.133Z,3.58
2022-09-04T00:35:41.054Z,2.83
2022-09-04T00:38:16.619Z,2.97
2022-09-04T00:40:52.721Z,3.80
2022-09-04T00:44:00.524Z,3.10
2022-09-04T00:46:59.518Z,2.83
2022-09-04T00:50:04.556Z,3.17
2022-09-04T00:53:02.502Z,3.00
2022-09-04T00:55:45.591Z,2.97
2022-09-04T00:58:37.477Z,3.25
2022-09-04T01:01:04.710Z,3.60
2022-09-04T01:03:43.829Z,3.47
2022-09-04T01:06:39.564Z,3.10
2022-09-04T01:09:31.442Z,2.53
2022-09-04T01:12:27.950Z,2.90
2022-09-04T01:15:28.034Z,2.85
2022-09-04T01:17:57.385Z,3.38
2022-09-04T01:21:10.645Z,2.88
2022-09-04T01:24:19.784Z,3.22
2022-09-04T01:27:22.696Z,3.33
2022-09-04T01:30:06.747Z,3.05
2022-09-04T01:32:36.612Z,2.75
2022-09-04T01:35:22.401Z,3.42
2022-09-04T01:38:06.469Z,3.00
2022-09-04T01:40:46.369Z,3.13
2022-09-04T01:43:21.318Z,3.78
2022-09-04T01:46:28.845Z,2.90
2022-09-04T01:49:20.612Z,3.28
2022-09-04T01:52:12.544Z,3.45
2022-09-04T01:55:19.401Z,3.60
2022-09-04T01:58:18.865Z,2.92
2022-09-04T02:01:22.020Z,3.53
2022-09-04T02:04:37.280Z,3.80
2022-09-04T02:07:23.980Z,3.42
2022-09-04T02:10:02.697Z,3.78
2022-09-04T02:12:35.919Z,3.95
2022-09-04T02:15:49.414Z,3.47
2022-09-04T02:18:43.387Z,3.42
2022-09-04T02:21:28.580Z,3.33
2022-09-04T02:24:17.707Z,3.42
2022-09-04T02:27:17.452Z,3.10
2022-09-04T02:30:02.542Z,3.47
2022-09-04T02:33:16.973Z,3.33
2022-09-04T02:35:55.839Z,3.70
2022-09-04T02:38:54.538Z,3.50
2022-09-04T02:41:50.853Z,3.22
2022-09-04T02:44:32.615Z,3.40
2022-09-04T02:47:30.897Z,3.70
2022-09-04T02:50:34.229Z,3.70
2022-09-04T02:53:44.530Z,2.92
2022-09-04T02:56:56.249Z,3.58
2022-09-04T02:59:50.384Z,4.15
2022-09-04T03:03:00.434Z,3.28
2022-09-04T03:05:42.182Z,3.55
2022-09-04T03:08:24.840Z,3.53
2022-09-04T03:11:22.048Z,4.25
2022-09-04T03:14:17.019Z,4.25
2022-09-04T03:16:57.300Z,3.78
2022-09-04T03:19:55.082Z,3.67
2022-09-04T03:22:47.517Z,4.40
2022-09-04T03:25:44.899Z,4.05
2022-09-04T03:28:40.705Z,4.70
2022-09-04T03:31:28.874Z,4.25
2022-09-04T03:34:23.193Z,4.47
2022-09-04T03:37:18.080Z,4.75
2022-09-04T03:40:19.752Z,4.50
2022-09-04T03:43:43.194Z,4.00
2022-09-04T03:46:47.574Z,4.25
2022-09-04T03:49:28.575Z,4.40
2022-09-04T03:52:34.019Z,4.40
2022-09-04T03:55:34.992Z,4.28
2022-09-04T03:58:48.109Z,4.90
2022-09-04T04:01:24.845Z,4.72
2022-09-04T04:04:14.588Z,5.28
2022-09-04T04:07:09.166Z,4.60
2022-09-04T04:10:03.660Z,4.67
2022-09-04T04:12:42.629Z,4.85
2022-09-04T04:15:46.477Z,5.18
2022-09-04T04:18:36.274Z,5.10
2022-09-04T04:21:27.684Z,5.00
2022-09-04T04:24:29.899Z,5.13
2022-09-04T04:27:25.602Z,4.38
2022-09-04T04:30:15.073Z,4.28
2022-09-04T04:33:03.614Z,3.75
2022-09-04T04:35:48.276Z,4.00
2022-09-04T04:38:39.596Z,3.88
2022-09-04T04:42:00.666Z,3.50
2022-09-04T04:45:10.083Z,3.88
2022-09-04T04:48:45.323Z,3.67
2022-09-04T04:51:40.681Z,3.83
2022-09-04T04:54:13.193Z,3.70
2022-09-04T04:57:05.224Z,3.60
2022-09-04T05:00:23.992Z,3.53
2022-09-04T05:03:32.128Z,4.38
2022-09-04T05:06:18.141Z,3.92
2022-09-04T05:09:35.653Z,3.53
2022-09-04T05:12:16.528Z,3.38
2022-09-04T05:14:58.183Z,4.05
2022-09-04T05:17:46.794Z,3.63
2022-09-04T05:20:27.160Z,3.83
2022-09-04T05:23:09.642Z,3.45
2022-09-04T05:25:59.736Z,3.75
2022-09-04T05:28:45.401Z,3.30
2022-09-04T05:32:01.314Z,3.80
2022-09-04T05:35:02.352Z,3.87
2022-09-04T05:37:45.172Z,3.80
2022-09-04T05:40:40.373Z,3.47
2022-09-04T05:43:44.362Z,3.55
2022-09-04T05:46:39.162Z,3.40
2022-09-04T05:50:14.291Z,4.10
2022-09-04T05:53:23.046Z,3.30
2022-09-04T05:56:13.963Z,3.17
2022-09-04T05:59:27.778Z,2.83
2022-09-04T06:02:27.030Z,3.55
2022-09-04T06:05:52.392Z,3.28
2022-09-04T06:08:19.515Z,3.53
2022-09-04T06:11:36.733Z,3.78
2022-09-04T06:14:35.590Z,3.42
2022-09-04T06:17:42.970Z,2.92
2022-09-04T06:20:20.209Z,3.33
2022-09-04T06:23:02.432Z,3.85
2022-09-04T06:26:03.664Z,3.33
2022-09-04T06:29:07.532Z,3.42
2022-09-04T06:32:04.775Z,3.53
2022-09-04T06:35:14.458Z,3.30
2022-09-04T06:38:37.661Z,3.17
2022-09-04T06:41:27.776Z,3.53
2022-09-04T06:44:35.294Z,3.58
2022-09-04T06:47:58.220Z,3.30
2022-09-04T06:50:41.873Z,3.72
2022-09-04T06:53:27.941Z,4.20
2022-09-04T06:56:32.276Z,3.45
2022-09-04T06:59:42.488Z,3.78
2022-09-04T07:02:55.590Z,4.30
2022-09-04T07:05:44.160Z,3.75
2022-09-04T07:08:26.345Z,3.45
2022-09-04T07:11:16.878Z,4.30
2022-09-04T07:14:17.123Z,4.32
2022-09-04T07:17:23.538Z,4.00
2022-09-04T07:20:22.152Z,3.70
2022-09-04T07:23:16.750Z,3.72
2022-09-04T07:26:17.766Z,3.97
2022-09-04T07:29:11.397Z,3.30
2022-09-04T07:31:50.587Z,4.10
2022-09-04T07:35:08.640Z,3.70
2022-09-04T07:37:58.468Z,3.78
2022-09-04T07:40:38.227Z,3.88
2022-09-04T07:43:06.033Z,3.90
2022-09-04T07:45:55.304Z,3.88
2022-09-04T07:48:43.926Z,3.88
2022-09-04T07:51:17.754Z,3.50
2022-09-04T07:54:22.726Z,3.77
2022-09-04T07:57:13.371Z,4.22
2022-09-04T08:00:14.184Z,3.70
2022-09-04T08:02:53.210Z,3.67
2022-09-04T08:05:45.055Z,3.80
2022-09-04T08:08:46.108Z,3.85
2022-09-04T08:11:24.135Z,3.95
2022-09-04T08:14:22.109Z,4.00
2022-09-04T08:17:03.051Z,4.13
2022-09-04T08:20:02.512Z,3.75
2022-09-04T08:22:57.984Z,3.97
2022-09-04T08:25:46.288Z,4.53
2022-09-04T08:28:46.509Z,4.38
2022-09-04T08:31:29.179Z,3.90
2022-09-04T08:34:33.427Z,4.00
2022-09-04T08:37:20.955Z,3.80
2022-09-04T08:40:46.614Z,4.00
2022-09-04T08:43:44.983Z,3.58
2022-09-04T08:46:56.335Z,4.07
2022-09-04T08:50:09.680Z,4.28
2022-09-04T08:53:26.131Z,4.28
2022-09-04T08:56:18.610Z,3.63
2022-09-04T08:59:37.811Z,3.60
2022-09-04T09:02:56.147Z,4.05
2022-09-04T09:06:29.877Z,4.57
2022-09-04T09:09:24.091Z,3.67
2022-09-04T09:12:16.944Z,3.97
2022-09-04T09:15:07.587Z,4.55
2022-09-04T09:17:50.244Z,4.10
2022-09-04T09:20:29.542Z,3.90
2022-09-04T09:23:48.826Z,4.40
2022-09-04T09:26:31.101Z,3.80
2022-09-04T09:29:28.930Z,4.25
2022-09-04T09:32:54.489Z,4.10
2022-09-04T09:35:41.856Z,4.45
2022-09-04T09:38:34.942Z,4.50
2022-09-04T09:41:38.281Z,4.03
2022-09-04T09:44:51.999Z,4.57
2022-09-04T09:47:56.639Z,4.70
2022-09-04T09:51:19.995Z,4.30
2022-09-04T09:54:41.591Z,3.88
2022-09-04T09:57:20.875Z,4.00
2022-09-04T10:00:08.822Z,4.13
2022-09-04T10:03:02.809Z,4.57
2022-09-04T10:06:15.092Z,4.13
2022-09-04T10:09:15.604Z,4.32
2022-09-04T10:12:00.827Z,4.05
2022-09-04T10:14:56.911Z,3.58
2022-09-04T10:17:54.774Z,4.05
2022-09-04T10:20:46.348Z,3.97
2022-09-04T10:23:50.841Z,3.60
2022-09-04T10:27:09.196Z,4.18
2022-09-04T10:30:02.955Z,4.20
2022-09-04T10:32:33.165Z,4.10
2022-09-04T10:35:32.743Z,3.85
2022-09-04T10:38:27.437Z,3.28
2022-09-04T10:41:28.564Z,4.10
2022-09-04T10:45:22.225Z,3.30
2022-09-04T10:48:01.952Z,3.42
2022-09-04T10:50:59.261Z,3.60
2022-09-04T10:53:52.880Z,3.90
2022-09-04T10:56:30.576Z,3.75
2022-09-04T10:59:31.296Z,3.30
2022-09-04T11:02:50.796Z,3.88
2022-09-04T11:05:40.461Z,4.20
2022-09-04T11:08:50.754Z,3.75
2022-09-04T11:11:52.935Z,3.17
2022-09-04T11:14:59.386Z,3.30
2022-09-04T11:17:57.796Z,3.30
2022-09-04T11:20:39.932Z,3.05
2022-09-04T11:23:43.735Z,3.63
2022-09-04T11:26:41.845Z,3.17
2022-09-04T11:29:56.007Z,3.55
2022-09-04T11:32:52.820Z,3.40
2022-09-04T11:36:12.906Z,3.60
2022-09-04T11:39:18.527Z,3.80
2022-09-04T11:42:31.022Z,3.10
2022-09-04T11:45:31.810Z,3.47
2022-09-04T11:48:17.154Z,3.40
2022-09-04T11:51:17.924Z,3.13
2022-09-04T11:54:28.549Z,3.10
2022-09-04T11:57:17.835Z,3.78
2022-09-04T12:00:09.097Z,3.45
2022-09-04T12:02:47.417Z,4.07
2022-09-04T12:05:39.253Z,3.75
2022-09-04T12:08:44.020Z,3.42
2022-09-04T12:11:35.226Z,2.80
2022-09-04T12:15:08.728Z,3.35
2022-09-04T12:17:58.420Z,3.30
2022-09-04T12:20:49.847Z,3.22
2022-09-04T12:24:10.065Z,3.17
2022-09-04T12:26:59.730Z,3.05
2022-09-04T12:30:02.594Z,2.97
2022-09-04T12:33:31.755Z,2.80
2022-09-04T12:36:48.200Z,3.40
2022-09-04T12:39:52.544Z,3.08
2022-09-04T12:43:09.258Z,3.30
2022-09-04T12:46:04.158Z,2.90
2022-09-04T12:51:24.692Z,2.67
2022-09-04T12:54:13.222Z,2.47
2022-09-04T12:57:20.243Z,2.88
2022-09-04T13:00:16.891Z,2.45
2022-09-04T13:02:52.712Z,2.42
2022-09-04T13:06:04.345Z,2.58
2022-09-04T13:08:40.163Z,2.45
2022-09-04T13:11:44.431Z,2.58
2022-09-04T13:15:09.094Z,2.50
2022-09-04T13:17:58.270Z,2.95
2022-09-04T13:20:53.751Z,2.70
2022-09-04T13:26:43.844Z,2.20
2022-09-04T13:29:36.274Z,2.60
2022-09-04T13:32:49.476Z,2.70
2022-09-04T13:35:50.155Z,2.45
2022-09-04T13:39:20.508Z,2.88
2022-09-04T13:41:48.046Z,2.75
2022-09-04T13:45:05.686Z,2.70
2022-09-04T13:47:52.238Z,2.22
2022-09-04T13:50:40.030Z,2.60
2022-09-04T13:53:23.536Z,2.50
2022-09-04T13:56:06.452Z,2.60
2022-09-04T13:58:49.627Z,2.58
2022-09-04T14:01:22.631Z,2.47
2022-09-04T14:04:04.874Z,2.92
2022-09-04T14:06:35.605Z,2.63
2022-09-04T14:09:04.713Z,2.65
2022-09-04T14:11:53.488Z,2.10
2022-09-04T14:14:41.889Z,2.60
2022-09-04T14:17:09.744Z,2.90
2022-09-04T14:19:59.395Z,2.28
2022-09-04T14:23:00.899Z,2.47
2022-09-04T14:26:13.074Z,2.75
2022-09-04T14:29:32.494Z,2.40
2022-09-04T14:32:58.243Z,2.05
2022-09-04T14:35:36.436Z,2.37
2022-09-04T14:38:41.365Z,2.75
2022-09-04T14:41:36.907Z,2.10
2022-09-04T14:44:32.565Z,2.30
2022-09-04T14:49:32.047Z,2.30
2022-09-04T14:52:16.704Z,2.20
2022-09-04T14:54:46.244Z,2.42
2022-09-04T14:57:36.652Z,1.95
2022-09-04T15:00:20.829Z,2.17
2022-09-04T15:03:08.812Z,2.50
2022-09-04T15:06:22.565Z,2.60
2022-09-04T15:08:53.890Z,2.45
2022-09-04T15:11:34.724Z,3.00
2022-09-04T15:14:28.410Z,2.65
2022-09-04T15:17:06.980Z,2.88
2022-09-04T15:19:52.426Z,2.80
2022-09-04T15:22:22.848Z,2.40
2022-09-04T15:25:03.739Z,2.60
2022-09-04T15:28:03.662Z,2.22
2022-09-04T15:30:44.883Z,2.50
2022-09-04T15:33:20.969Z,2.50
2022-09-04T15:36:08.445Z,2.83
2022-09-04T15:38:39.079Z,2.67
2022-09-04T15:41:44.723Z,2.22
2022-09-04T15:44:32.864Z,3.15
2022-09-04T15:47:17.879Z,2.83
2022-09-04T15:49:54.662Z,2.58
2022-09-04T15:53:04.997Z,2.88
2022-09-04T15:55:40.696Z,2.38
2022-09-04T15:58:16.861Z,3.33
2022-09-04T16:01:06.455Z,2.80
2022-09-04T16:04:27.342Z,2.50
2022-09-04T16:07:20.213Z,2.60
2022-09-04T16:09:57.721Z,2.95
2022-09-04T16:12:32.611Z,3.10
2022-09-04T16:15:20.179Z,2.63
2022-09-04T16:17:54.729Z,3.15
2022-09-04T16:20:40.491Z,2.60
2022-09-04T16:23:15.210Z,2.90
2022-09-04T16:25:49.921Z,2.40
2022-09-04T16:28:39.504Z,2.67
2022-09-04T16:31:34.499Z,2.80
2022-09-04T16:34:51.338Z,2.17
2022-09-04T16:37:36.181Z,4.22
2022-09-04T16:40:46.274Z,3.20
2022-09-04T16:43:25.412Z,2.53
2022-09-04T16:46:30.993Z,2.97
2022-09-04T16:49:25.566Z,2.75
2022-09-04T16:52:26.447Z,2.40
2022-09-04T16:55:07.766Z,2.80
2022-09-04T16:58:04.371Z,2.45
2022-09-04T17:01:20.615Z,2.45
2022-09-04T17:04:20.765Z,3.40
2022-09-04T17:07:12.190Z,2.65
2022-09-04T17:10:20.340Z,4.40
2022-09-04T17:13:38.017Z,3.08
2022-09-04T17:16:20.228Z,2.45
2022-09-04T17:18:54.670Z,2.70
2022-09-04T17:29:00.734Z,2.80
2022-09-04T17:29:04.886Z,2.70
2022-09-04T17:32:00.795Z,2.95
2022-09-04T17:40:38.751Z,2.55
2022-09-04T17:40:57.398Z,3.25
2022-09-04T17:41:38.244Z,2.97
2022-09-04T17:44:25.552Z,2.97
2022-09-04T17:47:08.686Z,2.78
2022-09-04T17:49:54.104Z,3.05
2022-09-04T17:52:36.862Z,3.13
2022-09-04T17:55:13.830Z,3.30
2022-09-04T17:58:09.686Z,2.70
2022-09-04T18:01:14.512Z,3.28
2022-09-04T18:04:20.475Z,4.07
2022-09-04T18:07:35.619Z,3.72
2022-09-04T18:10:03.256Z,3.30
2022-09-04T18:13:38.088Z,3.78
2022-09-04T18:16:40.707Z,3.33
2022-09-04T18:19:28.611Z,3.60
2022-09-04T18:22:26.622Z,3.35
2022-09-04T18:25:28.667Z,2.85
2022-09-04T18:28:36.232Z,3.35
2022-09-04T18:37:12.659Z,3.53
2022-09-04T18:37:19.121Z,3.42
2022-09-04T18:37:41.538Z,3.40
2022-09-04T18:44:55.295Z,3.53
2022-09-04T18:50:31.250Z,3.38
2022-09-04T18:50:35.452Z,2.95
2022-09-04T18:52:33.280Z,3.97
2022-09-04T18:55:15.053Z,3.42
2022-09-04T18:58:49.036Z,3.35
2022-09-04T19:01:36.770Z,4.78
2022-09-04T19:04:18.603Z,4.63
2022-09-04T19:07:27.207Z,4.38
2022-09-04T19:10:32.234Z,3.05
2022-09-04T19:13:11.310Z,3.20
2022-09-04T19:16:18.352Z,3.40
2022-09-04T19:19:03.940Z,3.10
2022-09-04T19:21:59.331Z,3.55
2022-09-04T19:24:53.250Z,4.38
2022-09-04T19:27:46.362Z,4.03
2022-09-04T19:30:25.109Z,3.95
2022-09-04T19:33:31.640Z,4.05
2022-09-04T19:36:08.170Z,3.53
2022-09-04T19:45:56.146Z,3.95
2022-09-04T19:46:02.142Z,3.50
2022-09-04T19:46:15.175Z,4.13
2022-09-04T19:47:53.235Z,3.60
2022-09-04T19:53:18.697Z,3.55
2022-09-04T19:53:48.748Z,3.17
2022-09-04T19:56:31.544Z,3.42
2022-09-04T19:59:23.611Z,4.00
2022-09-04T20:02:02.855Z,3.00
2022-09-04T20:04:49.027Z,3.55
2022-09-04T20:07:49.291Z,3.80
2022-09-04T20:10:48.651Z,3.72
2022-09-04T20:13:57.143Z,5.43
2022-09-04T20:16:42.656Z,3.97
2022-09-04T20:19:48.326Z,4.13
2022-09-04T20:22:46.271Z,5.10
2022-09-04T20:25:31.395Z,4.18
2022-09-04T20:28:11.012Z,4.20
2022-09-04T20:30:47.946Z,4.57
2022-09-04T20:33:24.321Z,4.43
2022-09-04T20:36:07.337Z,3.83
2022-09-04T20:38:57.784Z,4.00
2022-09-04T20:41:33.257Z,4.93
2022-09-04T20:44:15.816Z,5.20
2022-09-04T20:52:40.999Z,4.40
2022-09-04T20:52:53.516Z,4.65
2022-09-04T20:53:28.399Z,6.57
2022-09-04T20:58:28.218Z,5.38
2022-09-04T21:03:15.153Z,5.18
2022-09-04T21:03:17.777Z,4.32
2022-09-04T21:06:19.233Z,4.30
2022-09-04T21:09:04.368Z,7.38
2022-09-04T21:11:41.457Z,4.38
2022-09-04T21:14:17.483Z,4.72
2022-09-04T21:17:27.526Z,11.07
2022-09-04T21:20:23.764Z,10.27
2022-09-04T21:23:38.210Z,6.07
2022-09-04T21:26:45.275Z,6.07
2022-09-04T21:29:49.425Z,4.70
2022-09-04T21:32:44.525Z,4.45
2022-09-04T21:35:29.089Z,4.20
2022-09-04T21:38:22.544Z,3.97
2022-09-04T21:41:20.523Z,4.18
2022-09-04T21:44:28.144Z,4.28
2022-09-04T21:47:29.009Z,4.18
2022-09-04T21:50:22.969Z,4.70
2022-09-04T21:53:31.777Z,3.85
2022-09-04T22:00:16.067Z,4.15
2022-09-04T22:02:40.290Z,4.13
2022-09-04T22:03:36.980Z,3.97
2022-09-04T22:08:01.155Z,4.38
2022-09-04T22:13:33.773Z,5.65
2022-09-04T22:13:45.554Z,4.72
2022-09-04T22:16:33.846Z,4.30
2022-09-04T22:19:16.398Z,4.60
2022-09-04T22:22:08.436Z,4.30
2022-09-04T22:25:25.174Z,4.45
2022-09-04T22:28:41.308Z,4.30
2022-09-04T22:34:34.187Z,5.32
2022-09-04T22:37:13.118Z,4.65
2022-09-04T22:40:12.725Z,4.55
2022-09-04T22:42:49.576Z,4.72
2022-09-04T22:45:50.581Z,4.78
2022-09-04T22:48:35.881Z,4.82
2022-09-04T22:51:21.017Z,4.50
2022-09-04T22:57:20.950Z,4.95
2022-09-04T23:00:09.694Z,5.10
2022-09-04T23:03:14.762Z,5.15
2022-09-04T23:06:46.721Z,5.20
2022-09-04T23:13:49.425Z,5.50
2022-09-04T23:13:58.478Z,5.28
2022-09-04T23:16:17.107Z,6.80
2022-09-04T23:24:11.422Z,6.03
2022-09-04T23:26:42.219Z,6.50
2022-09-04T23:26:59.978Z,6.47
2022-09-04T23:29:52.286Z,7.13
2022-09-04T23:32:55.143Z,6.03
2022-09-04T23:36:03.491Z,6.82
2022-09-04T23:39:04.454Z,6.70
2022-09-04T23:42:32.927Z,7.00
2022-09-04T23:46:01.466Z,7.25
2022-09-04T23:49:11.128Z,7.13
2022-09-04T23:52:48.830Z,7.40
2022-09-04T23:56:04.456Z,6.78
2022-09-04T23:59:38.505Z,7.68
